Data for 08/13/2013

Time Sea-Level Adjusted Pressure Absolute Pressure Temperature Relative Humidity Dew Point   
(mb) (inHg) (mb) (inHg) (C) (F) (%) (C) (F)
00:05 1022 30.18 851 25.13 17 62.6 42 4 39.3
00:10 1022 30.18 851 25.13 17.3 63.1 41 4.2 39.5
00:15 1022 30.18 852 25.16 17.5 63.5 41 4.3 39.7
00:20 1022 30.18 852 25.16 17.7 63.9 41 4.4 39.9
00:25 1022 30.18 852 25.16 17.9 64.2 40 4.3 39.8
00:30 1022 30.18 851 25.13 18.1 64.5 40 4.4 39.9
00:35 1022 30.18 851 25.13 18.2 64.8 40 4.6 40.3
00:40 1022 30.18 851 25.13 18.3 64.9 41 4.8 40.6
00:45 1022 30.18 851 25.13 18.3 65 40 4.8 40.6
00:50 1022 30.18 851 25.13 18.5 65.2 40 4.9 40.8
00:55 1022 30.18 851 25.13 18.4 65.1 41 4.9 40.8
01:00 1022 30.18 851 25.13 18.4 65.1 41 5 40.9
01:05 1022 30.18 851 25.13 18.4 65 41 5.1 41.2
01:10 1022 30.18 851 25.13 18.2 64.7 42 5.2 41.4
01:15 1022 30.18 851 25.13 18 64.3 43 5.3 41.5
01:20 1022 30.18 851 25.13 17.8 64 43 5.2 41.4
01:25 1022 30.18 851 25.13 17.7 63.8 43 5.1 41.2
01:30 1022 30.18 852 25.16 17.7 63.9 43 5.1 41.2
01:35 1022 30.18 852 25.16 17.8 64 43 5.1 41.2
01:40 1022 30.18 852 25.16 17.8 64.1 43 5.2 41.3
01:45 1023 30.21 852 25.16 17.8 64.1 43 5.2 41.3
01:50 1023 30.21 852 25.16 17.6 63.7 43 5 41
01:55 1023 30.21 852 25.16 17.8 64 42 4.9 40.8
02:00 1023 30.21 852 25.16 17.9 64.3 43 5.2 41.4
02:05 1023 30.21 852 25.16 17.9 64.1 42 5 41.1
02:10 1023 30.21 852 25.16 17.9 64.2 43 5.2 41.3
02:15 1023 30.21 852 25.16 17.9 64.3 43 5.2 41.4
02:20 1023 30.21 852 25.16 17.9 64.2 43 5.2 41.4
02:25 1023 30.21 852 25.16 17.8 64 43 5.1 41.2
02:30 1023 30.21 852 25.16 17.8 64 43 5.1 41.2
02:35 1023 30.21 852 25.16 17.8 64 43 5.1 41.2
02:40 1023 30.21 853 25.19 17.9 64.2 43 5.2 41.3
02:45 1023 30.21 852 25.16 18 64.3 42 4.9 40.8
02:50 1023 30.21 852 25.16 18.1 64.5 42 5.2 41.4
02:55 1023 30.21 852 25.16 17.9 64.2 43 5.4 41.6
03:00 1023 30.21 852 25.16 17.7 63.9 44 5.4 41.7
03:05 1023 30.21 852 25.16 17.7 63.8 44 5.4 41.8
03:10 1023 30.21 852 25.16 17.6 63.6 45 5.6 42.1
03:15 1023 30.21 853 25.19 17.5 63.5 45 5.5 42
03:20 1023 30.21 853 25.19 17.5 63.6 45 5.6 42.1
03:25 1023 30.21 852 25.16 17.3 63.2 47 5.9 42.6
03:30 1023 30.21 853 25.19 17 62.5 48 5.8 42.5
03:35 1023 30.21 853 25.19 16.7 62.1 48 5.8 42.5
03:40 1023 30.21 852 25.16 16.6 61.9 48 5.8 42.4
03:45 1023 30.21 852 25.16 16.5 61.6 53 6.9 44.5
03:50 1023 30.21 852 25.16 16.3 61.4 50 5.9 42.5
03:55 1023 30.21 852 25.16 16.2 61.2 50 5.8 42.5
04:00 1023 30.21 852 25.16 15.9 60.6 51 5.9 42.7
04:05 1023 30.21 852 25.16 15.7 60.2 51 5.8 42.4
04:10 1023 30.21 852 25.16 15.7 60.3 51 5.7 42.3
04:15 1023 30.21 852 25.16 15.5 59.8 51 5.6 42
04:20 1023 30.21 852 25.16 15.2 59.3 51 5.3 41.5
04:25 1023 30.21 852 25.16 14.7 58.4 53 5.2 41.4
04:30 1023 30.21 852 25.16 14.4 58 52 4.8 40.7
04:35 1023 30.21 852 25.16 14.4 57.9 52 4.7 40.4
04:40 1023 30.21 852 25.16 15 58.9 49 4.3 39.8
04:45 1023 30.21 852 25.16 15.2 59.3 50 4.8 40.6
04:50 1023 30.21 852 25.16 14.7 58.5 51 4.7 40.5
04:55 1023 30.21 852 25.16 14.5 58.1 51 4.5 40.2
05:00 1023 30.21 852 25.16 14.3 57.8 52 4.8 40.6
05:05 1023 30.21 852 25.16 14.2 57.5 55 5.4 41.7
05:10 1023 30.21 852 25.16 14 57.2 56 5.4 41.8
05:15 1023 30.21 852 25.16 14.2 57.6 54 5.2 41.4
05:20 1023 30.21 852 25.16 14.8 58.7 53 5.4 41.7
05:25 1023 30.21 852 25.16 15.1 59.2 52 5.5 41.9
05:30 1023 30.21 852 25.16 15.2 59.3 53 5.7 42.2
05:35 1023 30.21 852 25.16 14.9 58.9 54 5.8 42.5
05:40 1023 30.21 852 25.16 14.5 58.1 55 5.6 42.1
05:45 1023 30.21 852 25.16 14.2 57.5 56 5.6 42.1
05:50 1023 30.21 852 25.16 14.1 57.4 56 5.5 42
05:55 1023 30.21 852 25.16 14.1 57.4 56 5.4 41.8
06:00 1023 30.21 852 25.16 14.1 57.4 55 5.2 41.3
06:05 1023 30.21 853 25.19 14.2 57.5 54 5.1 41.2
06:10 1023 30.21 853 25.19 14.2 57.6 53 5 40.9
06:15 1023 30.21 853 25.19 14.2 57.5 54 5 41
06:20 1023 30.21 853 25.19 14.3 57.7 53 4.9 40.8
06:25 1024 30.24 853 25.19 14.5 58 54 5.3 41.5
06:30 1024 30.24 853 25.19 14.7 58.5 55 5.9 42.6
06:35 1024 30.24 853 25.19 14.9 58.8 54 5.7 42.3
06:40 1024 30.24 853 25.19 15.3 59.5 53 6 42.7
06:45 1024 30.24 853 25.19 15.6 60.1 50 5.4 41.8
06:50 1024 30.24 853 25.19 16 60.8 51 5.9 42.5
06:55 1024 30.24 853 25.19 16.3 61.3 49 5.6 42
07:00 1024 30.24 853 25.19 16.5 61.8 48 5.6 42
07:05 1024 30.24 853 25.19 16.8 62.2 47 5.6 42.1
07:10 1024 30.24 853 25.19 17 62.6 47 5.7 42.3
07:15 1024 30.24 853 25.19 17.2 62.9 47 5.9 42.7
07:20 1024 30.24 853 25.19 17.2 63 46 5.6 42.1
07:25 1024 30.24 853 25.19 17 62.6 50 6.7 44.1
07:30 1024 30.24 853 25.19 16.5 61.7 49 5.9 42.7
07:35 1024 30.24 853 25.19 17 62.6 49 6.3 43.4
07:40 1023 30.21 853 25.19 17.3 63.1 47 5.9 42.6
07:45 1023 30.21 853 25.19 17.1 62.7 49 6.4 43.6
07:50 1024 30.24 853 25.19 17.1 62.7 48 6.1 42.9
07:55 1024 30.24 853 25.19 17.5 63.5 48 6.4 43.6
08:00 1024 30.24 853 25.19 17.6 63.7 46 5.9 42.7
08:05 1024 30.24 853 25.19 17.7 63.8 44 5.4 41.7
08:10 1024 30.24 853 25.19 17.7 63.9 44 5.6 42
08:15 1024 30.24 853 25.19 18.5 65.2 42 5.6 42.1
08:20 1024 30.24 853 25.19 19.2 66.5 40 5.4 41.8
08:25 1024 30.24 853 25.19 19.7 67.4 40 5.7 42.2
08:30 1024 30.24 853 25.19 20.3 68.5 37 5.2 41.3
08:35 1024 30.24 853 25.19 20.8 69.5 38 6.1 42.9
08:40 1024 30.24 853 25.19 20.8 69.4 38 6 42.7
08:45 1024 30.24 853 25.19 20.7 69.3 39 6.6 43.8
08:50 1024 30.24 853 25.19 20.4 68.7 39 6 42.8
08:55 1024 30.24 853 25.19 20.2 68.4 40 6.3 43.4
09:00 1024 30.24 853 25.19 20.1 68.2 40 6.2 43.1
09:05 1024 30.24 853 25.19 20.6 69.1 39 6.5 43.7
09:10 1024 30.24 853 25.19 20.9 69.6 37 5.8 42.5
09:15 1024 30.24 853 25.19 20.8 69.4 38 6.2 43.1
09:20 1024 30.24 853 25.19 20.2 68.4 39 5.9 42.6
09:25 1024 30.24 853 25.19 20.9 69.7 37 6 42.7
09:30 1024 30.24 853 25.19 21.5 70.6 36 5.9 42.7
09:35 1024 30.24 853 25.19 21.5 70.7 35 5.5 42
09:40 1024 30.24 853 25.19 21.2 70.2 35 5.4 41.7
09:45 1024 30.24 853 25.19 21.5 70.6 34 5.1 41.2
09:50 1024 30.24 853 25.19 21.9 71.5 31 4.2 39.6
09:55 1024 30.24 853 25.19 22.6 72.7 31 4.9 40.8
10:00 1024 30.24 853 25.19 22.6 72.7 33 5.6 42
10:05 1024 30.24 853 25.19 23 73.3 31 5.3 41.6
10:10 1024 30.24 853 25.19 22.7 72.8 32 5.5 41.9
10:15 1024 30.24 853 25.19 22.7 72.9 32 5.3 41.6
10:20 1024 30.24 853 25.19 23.1 73.6 31 5.4 41.8
10:25 1024 30.24 853 25.19 23.5 74.3 32 5.9 42.7
10:30 1024 30.24 853 25.19 23.2 73.8 32 6 42.8
10:35 1024 30.24 853 25.19 22.8 73 33 5.7 42.3
10:40 1024 30.24 853 25.19 22.8 73 33 5.9 42.6
10:45 1024 30.24 853 25.19 23.1 73.6 31 5.4 41.8
10:50 1024 30.24 853 25.19 23 73.3 32 5.7 42.2
10:55 1024 30.24 853 25.19 22.8 73.1 31 5.1 41.2
11:00 1024 30.24 853 25.19 23.7 74.6 30 5.3 41.5
11:05 1024 30.24 853 25.19 23.6 74.4 30 5.3 41.6
11:10 1024 30.24 853 25.19 23.7 74.6 28 4.4 40
11:15 1024 30.24 853 25.19 23.8 74.9 30 5.3 41.5
11:20 1024 30.24 853 25.19 24 75.1 30 5.5 41.9
11:25 1024 30.24 853 25.19 24.4 75.9 29 5.2 41.4
11:30 1024 30.24 853 25.19 25 77.1 28 5.5 42
11:35 1024 30.24 853 25.19 25.1 77.2 28 5.4 41.7
11:40 1024 30.24 853 25.19 24.9 76.9 28 5.3 41.6
11:45 1024 30.24 853 25.19 24.7 76.4 28 5.2 41.3
11:50 1023 30.21 853 25.19 24.3 75.8 29 5.3 41.6
11:55 1023 30.21 852 25.16 25.3 77.6 26 4.8 40.6
12:00 1023 30.21 852 25.16 24.8 76.7 28 5.5 41.9
12:05 1023 30.21 852 25.16 25.3 77.5 25 4 39.2
12:10 1023 30.21 852 25.16 25.2 77.3 24 3.5 38.3
12:15 1023 30.21 852 25.16 26 78.9 24 4.4 39.9
12:20 1023 30.21 852 25.16 25.6 78.1 25 4.2 39.5
12:25 1023 30.21 852 25.16 26.5 79.8 23 4 39.1
12:30 1023 30.21 852 25.16 26.9 80.4 23 4.1 39.4
12:35 1022 30.18 852 25.16 26.5 79.7 24 4.7 40.4
12:40 1022 30.18 852 25.16 26.5 79.7 21 2.9 37.1
12:45 1022 30.18 851 25.13 27.1 80.7 22 3.9 39.1
12:50 1022 30.18 851 25.13 27.5 81.4 21 3.7 38.7
12:55 1022 30.18 851 25.13 27.6 81.8 21 3.4 38.1
13:00 1022 30.18 851 25.13 27.5 81.6 21 3.6 38.6
13:05 1022 30.18 851 25.13 27.5 81.4 21 3.8 38.9
13:10 1022 30.18 851 25.13 27.3 81.1 22 4.3 39.7
13:15 1022 30.18 851 25.13 26.5 79.8 23 4.1 39.4
13:20 1022 30.18 851 25.13 26.3 79.3 24 4.2 39.6
13:25 1022 30.18 851 25.13 26.3 79.4 24 4.2 39.6
13:30 1022 30.18 851 25.13 26.4 79.5 24 4.5 40.1
13:35 1022 30.18 851 25.13 26.3 79.4 25 4.9 40.9
13:40 1022 30.18 851 25.13 26.4 79.4 24 4.6 40.2
13:45 1022 30.18 851 25.13 26.5 79.6 23 3.9 39.1
13:50 1022 30.18 851 25.13 26.4 79.5 21 2.8 37.1
13:55 1022 30.18 851 25.13 26.3 79.3 22 3 37.3
14:00 1022 30.18 851 25.13 26.3 79.4 22 3 37.4
14:05 1022 30.18 851 25.13 26.4 79.5 24 4.4 39.9
14:10 1022 30.18 851 25.13 26.4 79.6 22 3.2 37.7
14:15 1022 30.18 851 25.13 26.4 79.5 23 3.8 38.8
14:20 1022 30.18 851 25.13 26.3 79.3 23 3.9 39.1
14:25 1022 30.18 851 25.13 26 78.9 22 2.7 36.8
14:30 1022 30.18 851 25.13 25.9 78.6 22 3.1 37.6
14:35 1022 30.18 851 25.13 25.7 78.3 22 2.5 36.5
14:40 1022 30.18 851 25.13 25.6 78.1 23 3.2 37.8
14:45 1022 30.18 851 25.13 25.5 77.9 27 5.6 42.2
14:50 1022 30.18 851 25.13 24.7 76.5 30 6.2 43.2
14:55 1022 30.18 851 25.13 24.3 75.8 30 5.8 42.4
15:00 1022 30.18 851 25.13 24.2 75.6 31 6.2 43.1
15:05 1022 30.18 851 25.13 24.3 75.7 33 7.2 45
15:10 1022 30.18 851 25.13 24.2 75.6 33 7.3 45.1
15:15 1022 30.18 851 25.13 24.3 75.7 32 6.7 44
15:20 1022 30.18 851 25.13 24.1 75.4 31 6.2 43.2
15:25 1022 30.18 851 25.13 24.1 75.4 33 7.2 45
15:30 1022 30.18 851 25.13 24.1 75.4 35 8 46.4
15:35 1021 30.15 851 25.13 24 75.1 32 6.5 43.7
15:40 1021 30.15 851 25.13 23.7 74.7 33 6.6 43.9
15:45 1021 30.15 851 25.13 23.5 74.2 35 7.3 45.1
15:50 1021 30.15 851 25.13 23.3 73.9 34 6.8 44.2
15:55 1021 30.15 851 25.13 23 73.5 34 6.5 43.7
16:00 1021 30.15 851 25.13 23 73.3 32 5.4 41.8
16:05 1021 30.15 850 25.1 23.2 73.7 30 4.9 40.8
16:10 1021 30.15 850 25.1 23.3 73.9 30 5 41
16:15 1021 30.15 850 25.1 23.3 74 29 4.5 40.1
16:20 1021 30.15 850 25.1 23.5 74.3 28 4 39.2
16:25 1021 30.15 850 25.1 23.5 74.4 27 3.9 39
16:30 1021 30.15 850 25.1 23.5 74.4 27 3.7 38.6
16:35 1021 30.15 850 25.1 23.6 74.5 28 4.1 39.4
16:40 1021 30.15 850 25.1 23.5 74.2 28 4.2 39.5
16:45 1021 30.15 850 25.1 23.4 74.1 29 4.5 40.1
16:50 1021 30.15 850 25.1 23.3 73.9 28 4 39.1
16:55 1021 30.15 850 25.1 22.8 73 28 3.5 38.2
17:00 1021 30.15 850 25.1 22.6 72.6 28 3.2 37.8
17:05 1021 30.15 850 25.1 22.4 72.4 29 3.5 38.3
17:10 1021 30.15 850 25.1 22.3 72.1 28 3 37.4
17:15 1021 30.15 850 25.1 22.2 72 28 3.1 37.6
17:20 1021 30.15 850 25.1 22.2 72 28 2.8 37.1
17:25 1021 30.15 850 25.1 22.2 72 28 3 37.4
17:30 1021 30.15 850 25.1 22.2 72 27 2.7 36.9
17:35 1021 30.15 850 25.1 22.2 71.9 28 3 37.3
17:40 1021 30.15 850 25.1 22.2 71.9 28 3 37.4
17:45 1021 30.15 850 25.1 22.2 72 27 2.7 36.9
17:50 1021 30.15 850 25.1 22.2 72 28 3 37.5
17:55 1021 30.15 850 25.1 22.2 71.9 28 3.1 37.5
18:00 1021 30.15 851 25.13 22.2 71.9 28 3 37.5
18:05 1022 30.18 851 25.13 22.1 71.8 28 2.8 37.1
18:10 1022 30.18 851 25.13 22.1 71.8 31 4.3 39.7
18:15 1022 30.18 851 25.13 22.2 72 28 3 37.4
18:20 1022 30.18 851 25.13 22.2 71.9 28 3.1 37.6
18:25 1021 30.15 851 25.13 22.7 72.9 24 1.4 34.5
18:30 1021 30.15 850 25.1 23 73.5 21 -0.2 31.7
18:35 1021 30.15 850 25.1 23.5 74.4 23 1.6 34.9
18:40 1021 30.15 850 25.1 22.7 72.9 25 1.7 35
18:45 1021 30.15 850 25.1 22.6 72.7 24 1.3 34.3
18:50 1021 30.15 850 25.1 22.4 72.3 27 2.7 36.8
18:55 1021 30.15 851 25.13 21.9 71.5 27 2.3 36.2
19:00 1021 30.15 851 25.13 21.8 71.3 26 1.9 35.4
19:05 1022 30.18 851 25.13 22.1 71.8 28 2.8 37
19:10 1022 30.18 852 25.16 21.5 70.8 31 3.7 38.7
19:15 1023 30.21 852 25.16 21.5 70.6 29 3.1 37.6
19:20 1023 30.21 852 25.16 21.5 70.7 29 3.1 37.5
19:25 1023 30.21 853 25.19 21.5 70.7 29 3.1 37.6
19:30 1024 30.24 853 25.19 21.2 70.2 32 3.9 38.9
19:35 1024 30.24 853 25.19 20.8 69.4 33 3.9 39
19:40 1024 30.24 853 25.19 20.5 68.9 33 3.8 38.8
19:45 1024 30.24 853 25.19 20.4 68.7 33 3.6 38.5
19:50 1024 30.24 853 25.19 20.3 68.5 33 3.8 38.9
19:55 1024 30.24 853 25.19 20.2 68.3 34 4.1 39.3
20:00 1024 30.24 853 25.19 20 68 35 4.4 39.9
20:05 1024 30.24 853 25.19 19.7 67.4 40 5.9 42.6
20:10 1024 30.24 853 25.19 19.5 67.1 40 5.7 42.3
20:15 1024 30.24 853 25.19 19.7 67.4 38 5.3 41.5
20:20 1024 30.24 853 25.19 19.6 67.3 39 5.5 41.9
20:25 1024 30.24 853 25.19 19.5 67.1 40 5.7 42.2
20:30 1023 30.21 853 25.19 19.4 66.9 39 5.3 41.6
20:35 1024 30.24 853 25.19 19.4 66.9 38 5 41
20:40 1024 30.24 853 25.19 19.5 67 38 4.8 40.7
20:45 1024 30.24 853 25.19 19.4 66.9 38 4.7 40.5
20:50 1024 30.24 853 25.19 19.4 66.8 38 4.7 40.4
20:55 1024 30.24 853 25.19 19.3 66.7 38 4.7 40.5
21:00 1024 30.24 853 25.19 19.1 66.4 38 4.8 40.6
21:05 1024 30.24 853 25.19 18.9 66 39 4.9 40.9
21:10 1024 30.24 853 25.19 18.7 65.6 40 4.8 40.7
21:15 1024 30.24 853 25.19 18.5 65.4 40 4.7 40.4
21:20 1024 30.24 853 25.19 18.4 65.2 40 4.7 40.5
21:25 1024 30.24 853 25.19 18.3 65 43 5.5 42
21:30 1024 30.24 853 25.19 18.2 64.8 41 4.9 40.8
21:35 1024 30.24 853 25.19 18 64.4 42 5.1 41.1
21:40 1024 30.24 853 25.19 17.9 64.1 42 4.9 40.9
21:45 1024 30.24 853 25.19 17.9 64.2 48 6.9 44.5
21:50 1024 30.24 853 25.19 17.9 64.2 43 5.3 41.5
21:55 1024 30.24 853 25.19 17.7 63.8 43 5 41.1
22:00 1024 30.24 853 25.19 17.6 63.7 43 5.1 41.1
22:05 1024 30.24 853 25.19 17.6 63.7 44 5.2 41.4
22:10 1024 30.24 853 25.19 17.7 63.9 43 5.2 41.4
22:15 1024 30.24 853 25.19 17.5 63.5 45 5.5 41.9
22:20 1024 30.24 853 25.19 17.3 63.1 46 5.7 42.2
22:25 1024 30.24 853 25.19 17.1 62.7 47 5.9 42.5
22:30 1024 30.24 853 25.19 17 62.6 48 6 42.9
22:35 1024 30.24 853 25.19 16.9 62.4 49 6.2 43.2
22:40 1024 30.24 853 25.19 16.8 62.2 49 6.2 43.2
22:45 1024 30.24 853 25.19 16.7 62 49 6.1 43
22:50 1024 30.24 853 25.19 16.7 62 49 5.9 42.7
22:55 1024 30.24 853 25.19 16.7 62.1 47 5.6 42.1
23:00 1024 30.24 853 25.19 16.8 62.3 47 5.7 42.2
23:05 1024 30.24 853 25.19 16.7 62.1 48 5.7 42.2
23:10 1024 30.24 853 25.19 16.6 61.8 48 5.6 42
23:15 1024 30.24 853 25.19 16.5 61.7 49 5.7 42.3
23:20 1024 30.24 853 25.19 16.3 61.4 50 5.9 42.5
23:25 1024 30.24 853 25.19 16.3 61.3 50 5.9 42.7
23:30 1024 30.24 853 25.19 16.2 61.2 50 5.9 42.6
23:35 1024 30.24 853 25.19 16.1 61 51 6 42.9
23:40 1024 30.24 853 25.19 16 60.9 51 5.9 42.6
23:45 1024 30.24 853 25.19 16.1 60.9 50 5.7 42.3
23:50 1024 30.24 853 25.19 16.1 61 51 6.1 42.9
23:55 1024 30.24 853 25.19 16.1 61 52 6.3 43.4
24:00 1024 30.24 853 25.19 15.9 60.6 53 6.5 43.7